Woodville, Mississippi
Current Conditions -  °F | °C
As of 6:55 AM on Sunday 23 Nov 2014 (Local Time) from KHZR Reporting Station
Light Rain Light Rain  
Wind Chill: 64°   Ceiling: 6500
Heat Index: 64°   Visibility: 10mi
Dew Point: 63°   Wind: 17mph
Humidity: 97%   Direction: 100°E
Pressure: 29.61"   Gusts: 23mph
Location:  31.1°N, 91.3°W
Report Text: KHZR 231255Z AUTO 10015G20KT 10SM -RA SCT006 BKN065 OVC120 18/17 A2961 RMK AO2 P0007 T01760172
Loading
Personal Weather Stations






























Interactive Weather Map New forecast layout! Learn more

10-Day Weather Forecast

Advertisements
Track Severe Weather on mobile